EWG8PT EDDN-ESGG
Flight info
| Callsign | EWG8PT |
|---|---|
| Flight time | N/A |
| Altitude | 30000 |
| Route | ERETO1C/10 ERETO DCT LONLI M726 LASTO M852 ZUCKA/N0448F360 DCT RAXLU/N0446F370 DCT TL DCT SABAK/N0447F360 DCT LUNIP |
| Aircraft | A320/M-SDE3FGHIRWY/LB1 |
Departure
| Time | N/A |
|---|---|
| Airport | Nuremberg Airport (EDDN) |
Arrival
| Time | 2026-04-30 14:05 |
|---|---|
| Airport | Göteborg Landvetter Airport (ESGG) |
| Time | Latitude | Longitude | Altitude | Speed | Heading |
|---|---|---|---|---|---|
| 2026-04-30 13:50 | 56.84240 | 11.36955 | 10452 ft | 334 kts | 32° |
| 2026-04-30 13:50 | 56.88179 | 11.41472 | 10451 ft | 334 kts | 32° |
| 2026-04-30 13:50 | 56.90151 | 11.43734 | 10452 ft | 335 kts | 32° |
| 2026-04-30 13:51 | 56.92123 | 11.45998 | 10449 ft | 335 kts | 32° |
| 2026-04-30 13:51 | 56.94093 | 11.48264 | 10449 ft | 335 kts | 32° |
| 2026-04-30 13:51 | 56.96061 | 11.50532 | 10446 ft | 335 kts | 32° |
| 2026-04-30 13:51 | 56.98032 | 11.52805 | 10446 ft | 334 kts | 32° |
| 2026-04-30 13:52 | 57.00000 | 11.55078 | 10449 ft | 335 kts | 32° |
| 2026-04-30 13:52 | 57.01971 | 11.57358 | 10449 ft | 335 kts | 32° |
| 2026-04-30 13:52 | 57.03940 | 11.59637 | 10449 ft | 335 kts | 32° |
| 2026-04-30 13:52 | 57.05908 | 11.61911 | 10449 ft | 335 kts | 32° |
| 2026-04-30 13:53 | 57.07780 | 11.64437 | 10446 ft | 335 kts | 45° |
| 2026-04-30 13:53 | 57.09304 | 11.67682 | 10448 ft | 335 kts | 50° |
| 2026-04-30 13:53 | 57.10774 | 11.71006 | 10450 ft | 336 kts | 50° |
| 2026-04-30 13:53 | 57.12201 | 11.74318 | 10445 ft | 323 kts | 51° |
| 2026-04-30 13:54 | 57.13554 | 11.77522 | 10446 ft | 311 kts | 51° |
| 2026-04-30 13:54 | 57.14858 | 11.80628 | 10447 ft | 302 kts | 51° |
| 2026-04-30 13:54 | 57.16330 | 11.83259 | 10451 ft | 291 kts | 33° |
| 2026-04-30 13:54 | 57.18084 | 11.85157 | 10450 ft | 296 kts | 28° |
| 2026-04-30 13:55 | 57.19918 | 11.86997 | 10451 ft | 303 kts | 28° |
| 2026-04-30 13:55 | 57.21737 | 11.88771 | 10383 ft | 289 kts | 27° |
| 2026-04-30 13:55 | 57.23464 | 11.90442 | 10245 ft | 269 kts | 27° |
| 2026-04-30 13:55 | 57.25090 | 11.91872 | 10084 ft | 250 kts | 20° |
| 2026-04-30 13:56 | 57.26711 | 11.92839 | 9658 ft | 242 kts | 17° |
| 2026-04-30 13:56 | 57.28307 | 11.93769 | 9133 ft | 239 kts | 22° |
| 2026-04-30 13:56 | 57.29806 | 11.95089 | 8598 ft | 238 kts | 26° |
| 2026-04-30 13:56 | 57.31273 | 11.96486 | 8079 ft | 237 kts | 26° |
| 2026-04-30 13:57 | 57.32752 | 11.97816 | 7577 ft | 236 kts | 25° |
| 2026-04-30 13:57 | 57.34224 | 11.99123 | 7095 ft | 234 kts | 25° |
| 2026-04-30 13:57 | 57.35675 | 12.00418 | 6801 ft | 229 kts | 24° |
| 2026-04-30 13:57 | 57.37129 | 12.01725 | 6508 ft | 234 kts | 24° |
| 2026-04-30 13:58 | 57.38591 | 12.03023 | 6202 ft | 232 kts | 24° |
| 2026-04-30 13:58 | 57.41405 | 12.05538 | 5604 ft | 215 kts | 24° |
| 2026-04-30 13:58 | 57.42728 | 12.06723 | 5328 ft | 208 kts | 24° |
| 2026-04-30 13:59 | 57.44004 | 12.07867 | 5056 ft | 200 kts | 24° |
| 2026-04-30 13:59 | 57.45259 | 12.08992 | 4794 ft | 200 kts | 24° |
| 2026-04-30 13:59 | 57.46469 | 12.10079 | 4539 ft | 186 kts | 24° |
| 2026-04-30 13:59 | 57.47593 | 12.11089 | 4297 ft | 172 kts | 24° |
| 2026-04-30 14:00 | 57.48594 | 12.11989 | 4054 ft | 153 kts | 24° |
| 2026-04-30 14:00 | 57.50382 | 12.13604 | 3693 ft | 139 kts | 24° |
| 2026-04-30 14:00 | 57.51242 | 12.14379 | 3503 ft | 138 kts | 24° |
| 2026-04-30 14:01 | 57.52116 | 12.15166 | 3326 ft | 140 kts | 23° |
| 2026-04-30 14:01 | 57.53000 | 12.15965 | 3147 ft | 142 kts | 24° |
| 2026-04-30 14:01 | 57.53880 | 12.16761 | 2960 ft | 140 kts | 23° |
| 2026-04-30 14:01 | 57.54758 | 12.17553 | 2780 ft | 141 kts | 24° |
| 2026-04-30 14:02 | 57.55632 | 12.18344 | 2579 ft | 141 kts | 22° |
| 2026-04-30 14:02 | 57.56229 | 12.18882 | 2445 ft | 140 kts | 24° |
| 2026-04-30 14:02 | 57.57106 | 12.19676 | 2253 ft | 141 kts | 24° |
| 2026-04-30 14:02 | 57.57989 | 12.20475 | 2078 ft | 142 kts | 21° |
| 2026-04-30 14:03 | 57.58859 | 12.21259 | 1868 ft | 139 kts | 21° |
| 2026-04-30 14:03 | 57.59737 | 12.22055 | 1681 ft | 139 kts | 20° |
| 2026-04-30 14:03 | 57.60615 | 12.22847 | 1485 ft | 139 kts | 21° |
| 2026-04-30 14:03 | 57.61483 | 12.23635 | 1316 ft | 143 kts | 20° |
| 2026-04-30 14:04 | 57.62381 | 12.24451 | 1096 ft | 145 kts | 20° |
| 2026-04-30 14:04 | 57.63287 | 12.25274 | 895 ft | 146 kts | 21° |
| 2026-04-30 14:04 | 57.64198 | 12.26095 | 718 ft | 146 kts | 19° |
| 2026-04-30 14:04 | 57.65097 | 12.26899 | 487 ft | 142 kts | 21° |
| 2026-04-30 14:05 | 57.65711 | 12.27460 | 503 ft | 72 kts | 28° |
| 2026-04-30 14:05 | 57.66080 | 12.27796 | 508 ft | 35 kts | 27° |
| 2026-04-30 14:05 | 57.66117 | 12.28038 | 509 ft | 17 kts | 115° |
| 2026-04-30 14:05 | 57.66134 | 12.28187 | 509 ft | 0 kts | 31° |
| 2026-04-30 14:07 | 57.66195 | 12.28245 | 510 ft | 18 kts | 26° |
| 2026-04-30 14:07 | 57.66337 | 12.28375 | 511 ft | 25 kts | 26° |
| 2026-04-30 14:07 | 57.66493 | 12.28518 | 512 ft | 26 kts | 26° |
| 2026-04-30 14:08 | 57.66825 | 12.28820 | 513 ft | 27 kts | 25° |